Terminal Aerodrome Forecast
Issued by NWS

Home | Current Version | Previous Version | Text Only | Print | Product List | Glossary Off
Versions: 1 2 3 4 5 6 7 8 9 10 11 12 13 14 15 16 17 18 19 20 21 22 23 24 25 26

811
FTUS43 KABR 220929 AAA
TAFPIR
TAF AMD
KPIR 220929Z 2209/2306 VRB05KT P6SM SCT250
     FM221000 VRB05KT 5SM BR OVC015
     FM221800 13012KT P6SM SKC
     FM230200 09010KT P6SM BKN250=

USA.gov is the U.S. government's official web portal to all federal, state and local government web resources and services.